createdAt,value
2023-01-26T00:01:21.101Z,4.20
2023-01-26T00:03:48.474Z,4.50
2023-01-26T00:06:18.154Z,4.60
2023-01-26T00:08:47.827Z,4.90
2023-01-26T00:11:24.294Z,4.30
2023-01-26T00:13:51.526Z,4.20
2023-01-26T00:16:18.822Z,4.30
2023-01-26T00:18:46.034Z,4.70
2023-01-26T00:21:18.299Z,4.70
2023-01-26T00:23:45.542Z,4.60
2023-01-26T00:26:17.287Z,4.50
2023-01-26T00:28:44.337Z,4.40
2023-01-26T00:31:26.908Z,4.60
2023-01-26T00:33:55.766Z,4.70
2023-01-26T00:36:22.924Z,4.70
2023-01-26T00:38:49.724Z,4.50
2023-01-26T00:41:35.073Z,4.50
2023-01-26T00:44:02.395Z,4.80
2023-01-26T00:46:29.356Z,4.70
2023-01-26T00:48:56.377Z,4.90
2023-01-26T00:51:23.266Z,4.50
2023-01-26T00:53:50.061Z,4.70
2023-01-26T00:56:16.836Z,4.40
2023-01-26T00:58:45.403Z,4.70
2023-01-26T01:01:12.433Z,4.90
2023-01-26T01:03:39.255Z,5.10
2023-01-26T01:06:06.091Z,4.90
2023-01-26T01:08:32.887Z,4.80
2023-01-26T01:11:08.270Z,5.00
2023-01-26T01:13:35.506Z,5.00
2023-01-26T01:16:10.235Z,5.00
2023-01-26T01:18:37.321Z,4.80
2023-01-26T01:21:14.798Z,4.80
2023-01-26T01:23:43.317Z,4.30
2023-01-26T01:26:10.812Z,4.50
2023-01-26T01:28:38.662Z,4.60
2023-01-26T01:31:12.919Z,4.80
2023-01-26T01:33:40.051Z,4.70
2023-01-26T01:36:12.085Z,4.70
2023-01-26T01:38:39.352Z,4.60
2023-01-26T01:41:07.223Z,5.00
2023-01-26T01:43:34.895Z,4.80
2023-01-26T01:46:24.224Z,4.50
2023-01-26T01:48:58.717Z,4.50
2023-01-26T01:51:52.427Z,4.70
2023-01-26T01:54:27.640Z,4.70
2023-01-26T01:56:58.857Z,4.70
2023-01-26T01:59:25.964Z,4.80
2023-01-26T02:01:53.571Z,4.80
2023-01-26T02:04:23.049Z,4.70
2023-01-26T02:06:57.327Z,4.70
2023-01-26T02:09:50.879Z,4.60
2023-01-26T02:12:23.981Z,4.70
2023-01-26T02:14:53.178Z,4.80
2023-01-26T02:17:20.005Z,4.50
2023-01-26T02:19:58.650Z,4.70
2023-01-26T02:23:40.580Z,4.40
2023-01-26T02:26:17.967Z,4.30
2023-01-26T02:28:47.284Z,4.20
2023-01-26T02:31:14.940Z,4.00
2023-01-26T02:33:42.777Z,4.40
2023-01-26T02:36:21.738Z,4.60
2023-01-26T02:38:58.913Z,4.70
2023-01-26T02:41:45.199Z,4.70
2023-01-26T02:44:13.592Z,4.50
2023-01-26T02:46:40.489Z,4.50
2023-01-26T02:49:25.578Z,4.40
2023-01-26T02:51:52.439Z,4.00
2023-01-26T02:54:37.823Z,4.20
2023-01-26T02:57:04.622Z,4.00
2023-01-26T02:59:31.403Z,3.50
2023-01-26T03:01:58.504Z,4.10
2023-01-26T03:04:25.680Z,4.20
2023-01-26T03:06:52.821Z,3.50
2023-01-26T03:09:19.619Z,4.00
2023-01-26T03:11:46.355Z,3.50
2023-01-26T03:14:15.048Z,3.40
2023-01-26T03:16:42.508Z,3.20
2023-01-26T03:19:32.302Z,3.30
2023-01-26T03:22:18.562Z,3.60
2023-01-26T03:25:03.881Z,3.70
2023-01-26T03:27:46.484Z,3.50
2023-01-26T03:30:16.624Z,3.60
2023-01-26T03:32:43.461Z,3.40
2023-01-26T03:35:15.114Z,3.10
2023-01-26T03:37:45.618Z,3.40
2023-01-26T03:40:31.914Z,3.70
2023-01-26T03:43:17.057Z,3.60
2023-01-26T03:46:02.419Z,3.60
2023-01-26T03:48:47.467Z,3.30
2023-01-26T03:51:32.571Z,3.40
2023-01-26T03:54:17.838Z,3.30
2023-01-26T03:56:44.712Z,3.50
2023-01-26T03:59:15.080Z,3.40
2023-01-26T04:02:04.347Z,3.20
2023-01-26T04:04:49.399Z,3.40
2023-01-26T04:07:34.747Z,3.40
2023-01-26T04:10:01.575Z,3.70
2023-01-26T04:12:28.355Z,3.50
2023-01-26T04:15:13.875Z,3.70
2023-01-26T04:17:58.874Z,3.50
2023-01-26T04:20:44.367Z,3.50
2023-01-26T04:23:21.047Z,3.00
2023-01-26T04:25:48.967Z,3.40
2023-01-26T04:28:16.075Z,3.40
2023-01-26T04:30:43.022Z,3.50
2023-01-26T04:33:10.106Z,3.30
2023-01-26T04:35:36.901Z,2.90
2023-01-26T04:38:03.659Z,3.20
2023-01-26T04:40:30.426Z,3.30
2023-01-26T04:42:57.185Z,3.20
2023-01-26T04:45:23.992Z,3.30
2023-01-26T04:47:50.896Z,3.30
2023-01-26T04:50:17.758Z,3.30
2023-01-26T04:52:44.618Z,3.30
2023-01-26T04:55:11.416Z,3.30
2023-01-26T04:57:38.194Z,3.00
2023-01-26T05:00:05.970Z,3.30
2023-01-26T05:02:32.757Z,3.20
2023-01-26T05:04:59.555Z,3.30
2023-01-26T05:07:26.305Z,3.60
2023-01-26T05:09:53.110Z,3.60
2023-01-26T05:12:34.730Z,3.50
2023-01-26T05:15:01.486Z,3.30
2023-01-26T05:17:28.275Z,3.50
2023-01-26T05:19:55.058Z,3.50
2023-01-26T05:22:21.860Z,3.70
2023-01-26T05:24:48.632Z,3.70
2023-01-26T05:27:21.298Z,3.50
2023-01-26T05:29:49.722Z,3.60
2023-01-26T05:32:17.266Z,3.60
2023-01-26T05:34:44.996Z,3.60
2023-01-26T05:37:14.675Z,3.70
2023-01-26T05:39:41.841Z,3.50
2023-01-26T05:42:08.581Z,3.40
2023-01-26T05:44:35.343Z,3.60
2023-01-26T05:47:02.176Z,3.60
2023-01-26T05:49:29.142Z,3.60
2023-01-26T05:51:56.361Z,3.50
2023-01-26T05:54:23.257Z,3.40
2023-01-26T05:56:50.345Z,3.40
2023-01-26T05:59:17.140Z,3.30
2023-01-26T06:01:43.913Z,3.00
2023-01-26T06:04:10.910Z,2.90
2023-01-26T06:06:37.735Z,3.00
2023-01-26T06:09:04.534Z,3.10
2023-01-26T06:11:33.139Z,3.40
2023-01-26T06:13:59.918Z,3.50
2023-01-26T06:16:26.774Z,3.30
2023-01-26T06:18:53.603Z,3.40
2023-01-26T06:21:20.368Z,3.50
2023-01-26T06:23:47.176Z,3.30
2023-01-26T06:26:15.435Z,3.40
2023-01-26T06:28:42.388Z,3.40
2023-01-26T06:31:10.719Z,3.30
2023-01-26T06:33:38.630Z,3.30
2023-01-26T06:36:09.937Z,3.80
2023-01-26T06:38:37.319Z,3.70
2023-01-26T06:41:07.961Z,4.00
2023-01-26T06:43:36.215Z,3.60
2023-01-26T06:46:04.757Z,3.50
2023-01-26T06:48:34.389Z,3.40
2023-01-26T06:51:15.625Z,3.80
2023-01-26T06:53:58.626Z,3.40
2023-01-26T06:56:27.887Z,3.00
2023-01-26T06:58:54.650Z,3.00
2023-01-26T07:01:26.324Z,2.80
2023-01-26T07:03:54.909Z,3.10
2023-01-26T07:06:21.778Z,3.20
2023-01-26T07:08:49.065Z,2.90
2023-01-26T07:11:16.844Z,2.90
2023-01-26T07:13:43.753Z,2.90
2023-01-26T07:16:16.583Z,3.10
2023-01-26T07:18:43.656Z,3.10
2023-01-26T07:21:21.493Z,3.10
2023-01-26T07:23:48.903Z,3.10
2023-01-26T07:26:16.193Z,3.30
2023-01-26T07:28:42.964Z,3.30
2023-01-26T07:31:11.800Z,3.20
2023-01-26T07:33:38.920Z,3.10
2023-01-26T07:36:06.367Z,2.90
2023-01-26T07:38:34.353Z,2.80
2023-01-26T07:41:13.205Z,3.00
2023-01-26T07:43:42.087Z,2.90
2023-01-26T07:46:10.552Z,2.90
2023-01-26T07:48:37.407Z,3.10
2023-01-26T07:51:07.110Z,3.10
2023-01-26T07:53:37.709Z,3.20
2023-01-26T07:56:14.331Z,3.30
2023-01-26T07:58:41.531Z,3.30
2023-01-26T08:01:12.397Z,3.10
2023-01-26T08:03:39.895Z,3.10
2023-01-26T08:06:11.554Z,3.10
2023-01-26T08:08:42.081Z,3.20
2023-01-26T08:11:09.859Z,3.20
2023-01-26T08:13:36.853Z,3.50
2023-01-26T08:16:12.435Z,3.40
2023-01-26T08:18:44.550Z,3.40
2023-01-26T08:21:13.909Z,3.30
2023-01-26T08:23:40.763Z,3.50
2023-01-26T08:26:12.033Z,3.30
2023-01-26T08:28:39.443Z,2.90
2023-01-26T08:31:13.947Z,3.20
2023-01-26T08:33:42.774Z,3.30
2023-01-26T08:36:13.559Z,3.10
2023-01-26T08:38:41.190Z,3.40
2023-01-26T08:41:09.016Z,3.30
2023-01-26T08:43:36.252Z,3.30
2023-01-26T08:46:03.584Z,3.40
2023-01-26T08:48:31.211Z,3.60
2023-01-26T08:51:01.103Z,3.00
2023-01-26T08:53:32.113Z,2.90
2023-01-26T08:56:02.507Z,3.60
2023-01-26T08:58:29.767Z,3.60
2023-01-26T09:00:56.581Z,3.40
2023-01-26T09:03:23.545Z,3.30
2023-01-26T09:05:50.326Z,3.30
2023-01-26T09:08:17.109Z,3.60
2023-01-26T09:10:46.490Z,3.70
2023-01-26T09:13:13.317Z,3.60
2023-01-26T09:15:40.069Z,3.60
2023-01-26T09:18:06.913Z,3.60
2023-01-26T09:20:33.683Z,3.60
2023-01-26T09:23:00.429Z,3.60
2023-01-26T09:25:27.192Z,3.40
2023-01-26T09:27:53.963Z,3.70
2023-01-26T09:30:20.874Z,4.10
2023-01-26T09:32:47.703Z,3.90
2023-01-26T09:35:15.282Z,3.50
2023-01-26T09:37:45.498Z,3.40
2023-01-26T09:40:23.202Z,3.70
2023-01-26T09:43:20.784Z,2.90
2023-01-26T09:46:18.221Z,3.10
2023-01-26T09:49:12.674Z,3.10
2023-01-26T09:51:51.098Z,3.30
2023-01-26T09:54:30.696Z,3.20
2023-01-26T09:57:00.806Z,3.10
2023-01-26T10:00:09.203Z,3.00
2023-01-26T10:03:05.775Z,4.50
2023-01-26T10:05:58.197Z,4.50
2023-01-26T10:08:26.932Z,3.30
2023-01-26T10:11:02.765Z,3.30
2023-01-26T10:13:30.606Z,3.80
2023-01-26T10:16:07.464Z,3.10
2023-01-26T10:18:53.819Z,3.30
2023-01-26T10:21:25.627Z,3.20
2023-01-26T10:23:52.895Z,3.60
2023-01-26T10:26:23.061Z,3.30
2023-01-26T10:28:52.153Z,3.90
2023-01-26T10:31:23.052Z,3.40
2023-01-26T10:33:59.066Z,3.50
2023-01-26T10:36:30.601Z,3.60
2023-01-26T10:39:06.846Z,3.40
2023-01-26T10:41:33.991Z,3.30
2023-01-26T10:44:09.415Z,3.30
2023-01-26T10:46:42.166Z,3.80
2023-01-26T10:49:09.029Z,3.70
2023-01-26T10:51:45.938Z,3.60
2023-01-26T10:54:27.669Z,3.40
2023-01-26T10:56:56.612Z,3.30
2023-01-26T10:59:32.627Z,3.50
2023-01-26T11:02:22.636Z,3.50
2023-01-26T11:05:09.079Z,3.50
2023-01-26T11:07:48.612Z,3.70
2023-01-26T11:10:36.520Z,3.40
2023-01-26T11:13:17.391Z,3.50
2023-01-26T11:16:14.553Z,3.60
2023-01-26T11:19:21.317Z,3.20
2023-01-26T11:21:57.754Z,3.40
2023-01-26T11:24:35.049Z,3.30
2023-01-26T11:27:21.522Z,3.10
2023-01-26T11:30:28.871Z,3.00
2023-01-26T11:33:37.285Z,3.50
2023-01-26T11:36:35.652Z,3.00
2023-01-26T11:39:06.177Z,3.80
2023-01-26T11:41:58.198Z,3.30
2023-01-26T11:45:23.399Z,3.50
2023-01-26T11:48:17.777Z,3.20
2023-01-26T11:51:14.148Z,3.50
2023-01-26T11:54:23.430Z,3.40
2023-01-26T11:57:27.167Z,3.30
2023-01-26T12:00:01.927Z,3.30
2023-01-26T12:02:37.743Z,3.70
2023-01-26T12:05:24.666Z,3.50
2023-01-26T12:07:55.751Z,3.60
2023-01-26T12:10:37.387Z,3.20
2023-01-26T12:13:22.085Z,3.40
2023-01-26T12:15:55.871Z,3.50
2023-01-26T12:18:42.075Z,3.50
2023-01-26T12:21:13.921Z,3.70
2023-01-26T12:23:59.440Z,3.70
2023-01-26T12:26:33.129Z,3.80
2023-01-26T12:29:20.684Z,3.70
2023-01-26T12:32:05.918Z,3.60
2023-01-26T12:34:33.895Z,3.50
2023-01-26T12:37:30.866Z,3.50
2023-01-26T12:40:44.075Z,3.30
2023-01-26T12:43:53.961Z,3.60
2023-01-26T12:46:22.282Z,3.50
2023-01-26T12:49:03.128Z,3.50
2023-01-26T12:51:35.439Z,3.40
2023-01-26T12:54:22.299Z,3.20
2023-01-26T12:56:56.929Z,3.20
2023-01-26T12:59:47.884Z,3.30
2023-01-26T13:02:15.464Z,3.30
2023-01-26T13:04:48.867Z,3.40
2023-01-26T13:07:38.466Z,3.50
2023-01-26T13:10:15.010Z,3.50
2023-01-26T13:13:21.263Z,3.20
2023-01-26T13:16:16.971Z,3.10
2023-01-26T13:19:00.629Z,3.40
2023-01-26T13:21:39.276Z,3.40
2023-01-26T13:24:18.256Z,3.20
2023-01-26T13:26:52.765Z,3.70
2023-01-26T13:29:25.486Z,3.60
2023-01-26T13:31:57.298Z,3.40
2023-01-26T13:34:40.891Z,3.50
2023-01-26T13:37:21.403Z,3.40
2023-01-26T13:40:02.008Z,3.40
2023-01-26T13:43:01.993Z,3.60
2023-01-26T13:46:08.123Z,3.80
2023-01-26T13:48:42.177Z,3.50
2023-01-26T13:51:13.823Z,3.60
2023-01-26T13:54:05.306Z,3.70
2023-01-26T13:56:40.062Z,3.60
2023-01-26T13:59:22.953Z,3.30
2023-01-26T14:01:55.618Z,3.40
2023-01-26T14:04:31.549Z,3.40
2023-01-26T14:07:04.688Z,3.70
2023-01-26T14:09:36.193Z,3.40
2023-01-26T14:12:05.285Z,3.50
2023-01-26T14:14:36.622Z,3.30
2023-01-26T14:17:09.570Z,3.60
2023-01-26T14:19:41.158Z,3.50
2023-01-26T14:22:13.493Z,3.20
2023-01-26T14:24:41.274Z,3.40
2023-01-26T14:27:38.734Z,3.40
2023-01-26T14:30:31.047Z,3.40
2023-01-26T14:33:06.367Z,3.10
2023-01-26T14:35:33.580Z,3.20
2023-01-26T14:38:28.996Z,3.20
2023-01-26T14:40:59.380Z,3.30
2023-01-26T14:43:27.757Z,3.20
2023-01-26T14:46:15.447Z,2.60
2023-01-26T14:49:06.020Z,2.80
2023-01-26T14:51:34.945Z,2.90
2023-01-26T14:54:13.617Z,3.00
2023-01-26T14:56:41.056Z,2.70
2023-01-26T14:59:21.285Z,2.90
2023-01-26T15:01:48.483Z,2.80
2023-01-26T15:04:38.643Z,2.70
2023-01-26T15:07:43.374Z,2.70
2023-01-26T15:10:37.852Z,3.00
2023-01-26T15:13:10.517Z,2.80
2023-01-26T15:16:05.105Z,2.60
2023-01-26T15:18:34.399Z,2.90
2023-01-26T15:21:15.927Z,3.20
2023-01-26T15:23:44.383Z,3.00
2023-01-26T15:26:33.444Z,2.80
2023-01-26T15:29:25.466Z,2.90
2023-01-26T15:31:56.177Z,2.70
2023-01-26T15:34:33.161Z,2.90
2023-01-26T15:37:01.574Z,2.70
2023-01-26T15:39:28.508Z,2.30
2023-01-26T15:42:20.799Z,2.30
2023-01-26T15:44:47.595Z,2.40
2023-01-26T15:47:15.411Z,2.30
2023-01-26T15:49:42.752Z,2.40
2023-01-26T15:52:17.794Z,2.30
2023-01-26T15:54:45.283Z,2.20
2023-01-26T15:57:12.822Z,2.10
2023-01-26T15:59:40.551Z,2.00
2023-01-26T16:02:15.607Z,2.20
2023-01-26T16:04:42.919Z,1.90
2023-01-26T16:07:15.748Z,1.60
2023-01-26T16:09:43.182Z,1.90
2023-01-26T16:12:30.374Z,2.00
2023-01-26T16:14:58.026Z,1.90
2023-01-26T16:17:24.941Z,2.00
2023-01-26T16:19:51.731Z,1.90
2023-01-26T16:22:18.542Z,2.10
2023-01-26T16:24:46.726Z,2.00
2023-01-26T16:27:13.516Z,2.20
2023-01-26T16:29:40.390Z,2.10
2023-01-26T16:32:29.204Z,1.90
2023-01-26T16:34:56.132Z,1.70
2023-01-26T16:37:22.877Z,1.80
2023-01-26T16:39:49.670Z,1.70
2023-01-26T16:42:20.060Z,1.80
2023-01-26T16:44:47.666Z,1.70
2023-01-26T16:47:14.679Z,2.00
2023-01-26T16:49:41.462Z,2.00
2023-01-26T16:52:09.893Z,2.00
2023-01-26T16:54:37.152Z,2.10
2023-01-26T16:57:04.096Z,2.10
2023-01-26T16:59:30.892Z,2.00
2023-01-26T17:01:57.894Z,1.90
2023-01-26T17:04:24.730Z,1.90
2023-01-26T17:06:51.594Z,1.60
2023-01-26T17:09:18.409Z,1.90
2023-01-26T17:11:45.251Z,2.00
2023-01-26T17:14:12.221Z,1.80
2023-01-26T17:16:39.657Z,1.90
2023-01-26T17:19:09.059Z,2.00
2023-01-26T17:21:36.484Z,2.10
2023-01-26T17:24:03.612Z,2.00
2023-01-26T17:26:30.545Z,2.10
2023-01-26T17:28:57.326Z,1.70
2023-01-26T17:31:25.190Z,1.90
2023-01-26T17:33:52.147Z,2.00
2023-01-26T17:36:19.804Z,1.80
2023-01-26T17:38:48.124Z,1.70
2023-01-26T17:41:16.293Z,2.10
2023-01-26T17:43:43.082Z,2.20
2023-01-26T17:46:17.530Z,2.10
2023-01-26T17:48:45.786Z,2.20
2023-01-26T17:51:21.551Z,1.90
2023-01-26T17:53:49.797Z,2.20
2023-01-26T17:56:19.265Z,1.90
2023-01-26T17:58:51.589Z,2.00
2023-01-26T18:01:19.950Z,1.90
2023-01-26T18:03:46.865Z,1.80
2023-01-26T18:06:14.075Z,2.00
2023-01-26T18:08:41.237Z,2.10
2023-01-26T18:11:12.567Z,1.80
2023-01-26T18:13:40.124Z,1.80
2023-01-26T18:16:10.043Z,1.80
2023-01-26T18:18:36.836Z,1.90
2023-01-26T18:21:22.664Z,2.00
2023-01-26T18:23:56.068Z,1.90
2023-01-26T18:26:24.818Z,2.00
2023-01-26T18:28:52.356Z,2.00
2023-01-26T18:31:26.780Z,2.00
2023-01-26T18:33:53.875Z,1.70
2023-01-26T18:36:21.687Z,1.80
2023-01-26T18:38:56.075Z,1.60
2023-01-26T18:41:24.601Z,1.70
2023-01-26T18:43:53.390Z,1.90
2023-01-26T18:46:22.351Z,1.60
2023-01-26T18:48:49.500Z,1.80
2023-01-26T18:51:18.182Z,1.50
2023-01-26T18:53:45.363Z,1.60
2023-01-26T18:56:15.265Z,1.40
2023-01-26T18:58:42.499Z,1.60
2023-01-26T19:01:14.906Z,1.70
2023-01-26T19:03:47.111Z,1.50
2023-01-26T19:06:20.229Z,1.70
2023-01-26T19:09:04.313Z,1.70
2023-01-26T19:11:38.132Z,1.60
2023-01-26T19:14:07.346Z,1.70
2023-01-26T19:16:34.560Z,1.90
2023-01-26T19:19:01.328Z,1.90
2023-01-26T19:21:29.293Z,1.60
2023-01-26T19:23:58.611Z,1.60
2023-01-26T19:26:30.792Z,1.40
2023-01-26T19:28:58.917Z,1.50
2023-01-26T19:31:26.841Z,1.40
2023-01-26T19:34:02.426Z,1.40
2023-01-26T19:36:32.562Z,1.40
2023-01-26T19:38:59.427Z,1.50
2023-01-26T19:41:26.744Z,1.60
2023-01-26T19:43:53.583Z,1.50
2023-01-26T19:46:21.416Z,1.20
2023-01-26T19:48:48.709Z,1.30
2023-01-26T19:51:21.358Z,1.30
2023-01-26T19:53:51.453Z,1.30
2023-01-26T19:56:30.813Z,1.70
2023-01-26T19:59:00.721Z,1.70
2023-01-26T20:01:29.453Z,1.60
2023-01-26T20:04:00.150Z,1.40
2023-01-26T20:06:30.065Z,1.30
2023-01-26T20:08:57.513Z,1.40
2023-01-26T20:11:26.572Z,1.20
2023-01-26T20:13:59.302Z,1.30
2023-01-26T20:16:30.333Z,1.40
2023-01-26T20:18:59.223Z,1.60
2023-01-26T20:21:28.311Z,1.50
2023-01-26T20:23:56.269Z,1.40
2023-01-26T20:26:26.133Z,1.20
2023-01-26T20:28:56.190Z,1.20
2023-01-26T20:31:26.106Z,1.20
2023-01-26T20:33:53.509Z,1.40
2023-01-26T20:36:24.405Z,1.30
2023-01-26T20:38:51.881Z,1.70
2023-01-26T20:41:23.557Z,1.60
2023-01-26T20:43:59.745Z,1.90
2023-01-26T20:46:38.347Z,1.30
2023-01-26T20:49:08.620Z,1.20
2023-01-26T20:51:36.272Z,1.30
2023-01-26T20:54:06.659Z,1.20
2023-01-26T20:56:35.460Z,1.30
2023-01-26T20:59:02.941Z,1.20
2023-01-26T21:01:30.236Z,1.10
2023-01-26T21:03:57.084Z,1.30
2023-01-26T21:06:24.578Z,1.70
2023-01-26T21:08:55.504Z,1.50
2023-01-26T21:11:25.892Z,1.30
2023-01-26T21:13:55.293Z,1.70
2023-01-26T21:16:23.077Z,1.90
2023-01-26T21:18:51.177Z,1.70
2023-01-26T21:21:18.653Z,2.00
2023-01-26T21:23:46.371Z,1.30
2023-01-26T21:26:16.684Z,1.40
2023-01-26T21:28:43.588Z,1.30
2023-01-26T21:31:14.582Z,1.40
2023-01-26T21:33:44.534Z,1.40
2023-01-26T21:36:18.981Z,1.40
2023-01-26T21:38:49.199Z,1.00
2023-01-26T21:41:44.606Z,1.20
2023-01-26T21:44:17.292Z,1.60
2023-01-26T21:46:50.148Z,1.80
2023-01-26T21:49:17.744Z,1.90
2023-01-26T21:52:03.545Z,1.60
2023-01-26T21:54:30.574Z,1.80
2023-01-26T21:56:58.857Z,1.80
2023-01-26T21:59:25.965Z,1.50
2023-01-26T22:01:55.220Z,1.70
2023-01-26T22:04:26.639Z,1.90
2023-01-26T22:06:54.393Z,1.70
2023-01-26T22:09:23.008Z,1.70
2023-01-26T22:11:50.896Z,1.70
2023-01-26T22:14:21.861Z,1.70
2023-01-26T22:16:49.282Z,1.40
2023-01-26T22:19:16.371Z,1.60
2023-01-26T22:21:43.252Z,1.70
2023-01-26T22:24:12.053Z,1.90
2023-01-26T22:26:39.710Z,1.90
2023-01-26T22:29:07.507Z,1.80
2023-01-26T22:31:34.669Z,1.70
2023-01-26T22:34:01.703Z,1.60
2023-01-26T22:36:29.349Z,1.90
2023-01-26T22:38:59.541Z,2.30
2023-01-26T22:41:35.289Z,1.60
2023-01-26T22:44:04.694Z,2.00
2023-01-26T22:46:32.146Z,2.30
2023-01-26T22:49:02.569Z,2.20
2023-01-26T22:51:34.686Z,1.90
2023-01-26T22:54:04.078Z,1.60
2023-01-26T22:56:37.017Z,2.10
2023-01-26T22:59:04.381Z,2.20
2023-01-26T23:01:33.576Z,2.00
2023-01-26T23:04:07.658Z,2.50
2023-01-26T23:06:37.431Z,2.00
2023-01-26T23:09:07.294Z,2.10
2023-01-26T23:11:45.354Z,2.20
2023-01-26T23:14:12.402Z,2.20
2023-01-26T23:16:46.290Z,1.60
2023-01-26T23:19:23.351Z,2.10
2023-01-26T23:22:09.746Z,2.20
2023-01-26T23:24:36.852Z,1.70
2023-01-26T23:27:09.994Z,1.90
2023-01-26T23:29:42.109Z,1.90
2023-01-26T23:32:09.205Z,2.10
2023-01-26T23:34:36.242Z,2.30
2023-01-26T23:37:05.884Z,2.20
2023-01-26T23:39:35.354Z,2.10
2023-01-26T23:42:04.962Z,2.00
2023-01-26T23:44:32.007Z,2.10
2023-01-26T23:46:59.121Z,2.10
2023-01-26T23:49:27.276Z,2.10
2023-01-26T23:51:54.524Z,2.50
2023-01-26T23:54:24.042Z,3.00
2023-01-26T23:56:51.144Z,2.80
2023-01-26T23:59:18.191Z,3.20
